createdAt,value
2019-02-06T00:00:36.058Z,34.27
2019-02-06T00:03:07.524Z,32.37
2019-02-06T00:05:38.560Z,32.33
2019-02-06T00:08:09.906Z,34.80
2019-02-06T00:10:41.003Z,32.93
2019-02-06T00:13:11.960Z,32.07
2019-02-06T00:15:43.004Z,32.20
2019-02-06T00:18:14.386Z,34.00
2019-02-06T00:20:45.382Z,32.30
2019-02-06T00:23:16.478Z,33.20
2019-02-06T00:25:47.472Z,32.67
2019-02-06T00:28:18.503Z,32.37
2019-02-06T00:30:50.067Z,31.43
2019-02-06T00:33:21.166Z,30.80
2019-02-06T00:35:52.403Z,32.90
2019-02-06T00:38:23.487Z,33.20
2019-02-06T00:40:54.511Z,32.30
2019-02-06T00:43:25.914Z,31.07
2019-02-06T00:45:57.103Z,34.40
2019-02-06T00:48:28.197Z,30.90
2019-02-06T00:50:59.198Z,32.43
2019-02-06T00:53:30.248Z,31.13
2019-02-06T00:56:01.404Z,32.97
2019-02-06T00:58:32.443Z,29.50
2019-02-06T01:01:05.961Z,30.57
2019-02-06T01:03:36.937Z,30.83
2019-02-06T01:06:08.079Z,31.87
2019-02-06T01:08:39.250Z,30.57
2019-02-06T01:11:10.463Z,29.60
2019-02-06T01:13:41.341Z,29.27
2019-02-06T01:16:12.449Z,31.57
2019-02-06T01:18:43.429Z,31.00
2019-02-06T01:21:14.511Z,31.27
2019-02-06T01:23:45.980Z,30.13
2019-02-06T01:26:16.991Z,29.30
2019-02-06T01:28:48.131Z,27.03
2019-02-06T01:31:20.577Z,29.60
2019-02-06T01:33:51.535Z,29.23
2019-02-06T01:36:22.744Z,27.50
2019-02-06T01:38:53.657Z,26.57
2019-02-06T01:41:24.624Z,29.07
2019-02-06T01:43:55.699Z,29.17
2019-02-06T01:46:26.753Z,29.23
2019-02-06T01:48:57.935Z,29.60
2019-02-06T01:51:29.253Z,28.43
2019-02-06T01:54:00.186Z,28.53
2019-02-06T01:56:31.162Z,28.43
2019-02-06T01:59:02.227Z,29.40
2019-02-06T02:01:33.173Z,28.00
2019-02-06T02:04:04.693Z,28.77
2019-02-06T02:06:35.761Z,29.90
2019-02-06T02:09:09.872Z,28.93
2019-02-06T02:11:40.911Z,27.40
2019-02-06T02:14:12.025Z,28.80
2019-02-06T02:16:43.064Z,24.97
2019-02-06T02:19:14.565Z,29.73
2019-02-06T02:21:45.845Z,29.13
2019-02-06T02:24:17.081Z,29.57
2019-02-06T02:26:48.177Z,30.97
2019-02-06T02:29:19.211Z,30.00
2019-02-06T02:31:50.466Z,27.93
2019-02-06T02:34:21.533Z,28.50
2019-02-06T02:36:52.452Z,29.33
2019-02-06T02:39:23.346Z,28.67
2019-02-06T02:41:54.393Z,27.80
2019-02-06T02:44:25.464Z,28.57
2019-02-06T02:46:56.719Z,28.87
2019-02-06T02:49:27.738Z,28.57
2019-02-06T02:51:58.799Z,27.97
2019-02-06T02:54:29.863Z,28.60
2019-02-06T02:57:01.178Z,27.07
2019-02-06T02:59:32.260Z,26.23
2019-02-06T03:02:04.942Z,26.23
2019-02-06T03:04:35.980Z,24.70
2019-02-06T03:07:07.241Z,24.03
2019-02-06T03:09:38.753Z,24.07
2019-02-06T03:12:09.721Z,23.53
2019-02-06T03:14:40.758Z,24.70
2019-02-06T03:17:11.768Z,24.70
2019-02-06T03:19:42.862Z,25.40
2019-02-06T03:22:13.840Z,24.23
2019-02-06T03:24:44.768Z,22.10
2019-02-06T03:27:15.735Z,21.93
2019-02-06T03:29:46.781Z,19.93
2019-02-06T03:32:17.911Z,22.20
2019-02-06T03:34:48.901Z,23.10
2019-02-06T03:37:19.863Z,23.67
2019-02-06T03:39:50.923Z,23.33
2019-02-06T03:42:21.975Z,23.77
2019-02-06T03:44:53.230Z,24.57
2019-02-06T03:47:24.260Z,24.63
2019-02-06T03:49:55.622Z,23.03
2019-02-06T03:52:26.623Z,24.03
2019-02-06T03:54:57.738Z,23.07
2019-02-06T03:57:28.686Z,20.07
2019-02-06T03:59:59.871Z,22.20
2019-02-06T04:02:30.938Z,19.43
2019-02-06T04:05:02.046Z,20.40
2019-02-06T04:07:33.047Z,19.27
2019-02-06T04:10:06.371Z,19.03
2019-02-06T04:12:37.550Z,18.17
2019-02-06T04:15:09.782Z,19.60
2019-02-06T04:17:40.861Z,19.37
2019-02-06T04:20:18.080Z,19.73
2019-02-06T04:22:49.174Z,20.00
2019-02-06T04:25:20.215Z,19.40
2019-02-06T04:27:51.615Z,18.60
2019-02-06T04:30:22.603Z,18.53
2019-02-06T04:32:53.545Z,18.80
2019-02-06T04:35:24.611Z,19.33
2019-02-06T04:37:55.741Z,19.43
2019-02-06T04:40:26.854Z,18.03
2019-02-06T04:42:57.916Z,20.27
2019-02-06T04:45:28.995Z,18.83
2019-02-06T04:47:59.988Z,20.53
2019-02-06T04:50:31.248Z,19.93
2019-02-06T04:53:02.285Z,18.50
2019-02-06T04:55:33.543Z,20.30
2019-02-06T04:58:04.999Z,19.40
2019-02-06T05:00:36.099Z,19.93
2019-02-06T05:03:07.099Z,20.00
2019-02-06T05:05:38.258Z,22.73
2019-02-06T05:08:11.307Z,22.27
2019-02-06T05:10:42.451Z,19.13
2019-02-06T05:13:13.505Z,18.57
2019-02-06T05:15:44.579Z,19.30
2019-02-06T05:18:15.741Z,19.43
2019-02-06T05:20:46.864Z,18.93
2019-02-06T05:23:17.805Z,19.40
2019-02-06T05:25:49.095Z,19.03
2019-02-06T05:28:20.063Z,20.27
2019-02-06T05:30:51.003Z,19.47
2019-02-06T05:33:21.977Z,20.03
2019-02-06T05:35:53.253Z,20.63
2019-02-06T05:38:24.221Z,19.93
2019-02-06T05:40:55.399Z,19.30
2019-02-06T05:43:26.449Z,19.53
2019-02-06T05:45:57.421Z,20.70
2019-02-06T05:48:28.477Z,18.23
2019-02-06T05:50:59.579Z,19.00
2019-02-06T05:53:30.591Z,20.47
2019-02-06T05:56:01.611Z,20.73
2019-02-06T05:58:32.896Z,23.17
2019-02-06T06:01:04.310Z,21.53
2019-02-06T06:03:35.546Z,17.33
2019-02-06T06:06:06.795Z,18.27
2019-02-06T06:08:37.899Z,18.97
2019-02-06T06:11:08.875Z,19.40
2019-02-06T06:13:39.911Z,19.40
2019-02-06T06:16:14.037Z,20.67
2019-02-06T06:18:45.066Z,21.33
2019-02-06T06:21:16.085Z,21.10
2019-02-06T06:23:47.115Z,21.37
2019-02-06T06:26:18.029Z,21.10
2019-02-06T06:28:49.205Z,21.80
2019-02-06T06:31:20.706Z,21.77
2019-02-06T06:33:51.612Z,20.47
2019-02-06T06:36:22.669Z,21.07
2019-02-06T06:38:53.670Z,20.47
2019-02-06T06:41:24.595Z,20.83
2019-02-06T06:43:56.003Z,21.70
2019-02-06T06:46:27.074Z,20.73
2019-02-06T06:48:58.349Z,20.80
2019-02-06T06:51:29.447Z,20.77
2019-02-06T06:54:00.436Z,19.77
2019-02-06T06:56:31.402Z,20.93
2019-02-06T06:59:02.491Z,20.10
2019-02-06T07:01:33.386Z,20.73
2019-02-06T07:04:04.450Z,20.57
2019-02-06T07:06:35.516Z,19.97
2019-02-06T07:09:08.654Z,19.30
2019-02-06T07:11:39.703Z,21.13
2019-02-06T07:14:10.744Z,21.17
2019-02-06T07:16:42.126Z,20.23
2019-02-06T07:19:13.068Z,21.93
2019-02-06T07:21:44.178Z,21.73
2019-02-06T07:24:15.449Z,20.87
2019-02-06T07:26:49.108Z,20.80
2019-02-06T07:29:20.071Z,19.67
2019-02-06T07:31:51.073Z,18.97
2019-02-06T07:34:22.146Z,18.53
2019-02-06T07:36:53.350Z,21.80
2019-02-06T07:39:24.536Z,20.27
2019-02-06T07:41:55.417Z,20.40
2019-02-06T07:44:26.328Z,20.67
2019-02-06T07:46:57.250Z,20.03
2019-02-06T07:49:28.536Z,19.53
2019-02-06T07:51:59.562Z,19.73
2019-02-06T07:54:30.537Z,19.90
2019-02-06T07:57:01.568Z,19.93
2019-02-06T07:59:32.683Z,21.17
2019-02-06T08:02:03.745Z,20.53
2019-02-06T08:04:34.725Z,21.47
2019-02-06T08:07:05.855Z,19.57
2019-02-06T08:09:37.106Z,21.53
2019-02-06T08:12:08.058Z,20.27
2019-02-06T08:14:39.134Z,19.30
2019-02-06T08:17:10.421Z,21.00
2019-02-06T08:19:41.513Z,21.93
2019-02-06T08:22:12.582Z,21.23
2019-02-06T08:24:43.621Z,19.47
2019-02-06T08:27:14.588Z,21.00
2019-02-06T08:29:45.707Z,20.50
2019-02-06T08:32:19.473Z,21.77
2019-02-06T08:34:50.745Z,21.77
2019-02-06T08:37:22.240Z,21.17
2019-02-06T08:39:53.280Z,19.03
2019-02-06T08:42:24.357Z,22.13
2019-02-06T08:44:55.387Z,20.60
2019-02-06T08:47:26.463Z,19.60
2019-02-06T08:49:57.421Z,21.17
2019-02-06T08:52:28.544Z,21.47
2019-02-06T08:54:59.545Z,21.20
2019-02-06T08:57:30.649Z,23.03
2019-02-06T09:00:01.532Z,22.00
2019-02-06T09:02:32.912Z,22.70
2019-02-06T09:05:07.643Z,21.07
2019-02-06T09:07:38.339Z,20.83
2019-02-06T09:10:13.424Z,22.87
2019-02-06T09:12:44.577Z,21.77
2019-02-06T09:15:15.959Z,21.50
2019-02-06T09:17:47.145Z,22.40
2019-02-06T09:20:20.508Z,21.70
2019-02-06T09:22:51.814Z,22.50
2019-02-06T09:25:26.946Z,21.70
2019-02-06T09:27:57.997Z,21.23
2019-02-06T09:30:34.201Z,22.27
2019-02-06T09:33:05.757Z,22.90
2019-02-06T09:35:36.809Z,18.17
2019-02-06T09:38:07.912Z,18.30
2019-02-06T09:40:38.883Z,19.27
2019-02-06T09:43:09.861Z,20.33
2019-02-06T09:45:40.826Z,20.10
2019-02-06T09:48:11.862Z,19.40
2019-02-06T09:50:42.895Z,18.07
2019-02-06T09:53:13.851Z,16.13
2019-02-06T09:55:44.874Z,16.73
2019-02-06T09:58:15.902Z,18.37
2019-02-06T10:00:48.851Z,20.50
2019-02-06T10:03:19.731Z,20.10
2019-02-06T10:05:50.789Z,21.27
2019-02-06T10:08:21.781Z,19.80
2019-02-06T10:10:52.885Z,22.13
2019-02-06T10:13:23.712Z,21.77
2019-02-06T10:15:54.686Z,21.23
2019-02-06T10:18:25.769Z,22.63
2019-02-06T10:20:56.837Z,22.70
2019-02-06T10:23:27.930Z,21.00
2019-02-06T10:25:58.888Z,20.73
2019-02-06T10:28:30.351Z,21.47
2019-02-06T10:31:01.537Z,21.60
2019-02-06T10:33:32.503Z,22.03
2019-02-06T10:36:03.473Z,20.17
2019-02-06T10:38:34.453Z,22.07
2019-02-06T10:41:05.784Z,21.13
2019-02-06T10:43:36.981Z,19.53
2019-02-06T10:46:08.019Z,20.53
2019-02-06T10:48:38.963Z,20.03
2019-02-06T10:51:10.214Z,20.53
2019-02-06T10:53:41.737Z,19.80
2019-02-06T10:56:12.819Z,19.23
2019-02-06T10:58:43.793Z,19.37
2019-02-06T11:01:14.698Z,20.40
2019-02-06T11:03:45.629Z,18.87
2019-02-06T11:06:16.689Z,18.40
2019-02-06T11:08:47.615Z,18.00
2019-02-06T11:11:18.651Z,18.80
2019-02-06T11:13:49.988Z,18.60
2019-02-06T11:16:21.489Z,19.27
2019-02-06T11:18:52.436Z,19.73
2019-02-06T11:21:23.644Z,17.63
2019-02-06T11:23:54.593Z,17.87
2019-02-06T11:26:26.007Z,17.87
2019-02-06T11:28:56.908Z,19.30
2019-02-06T11:31:27.878Z,17.07
2019-02-06T11:33:59.319Z,18.07
2019-02-06T11:36:30.453Z,17.40
2019-02-06T11:39:01.403Z,17.40
2019-02-06T11:41:32.579Z,17.13
2019-02-06T11:44:04.223Z,17.83
2019-02-06T11:46:35.178Z,18.10
2019-02-06T11:49:07.021Z,19.27
2019-02-06T11:51:40.856Z,17.13
2019-02-06T11:54:13.132Z,17.50
2019-02-06T11:56:44.283Z,16.77
2019-02-06T11:59:15.531Z,19.43
2019-02-06T12:01:46.654Z,19.13
2019-02-06T12:04:17.913Z,20.10
2019-02-06T12:06:49.012Z,18.80
2019-02-06T12:09:20.058Z,20.10
2019-02-06T12:11:51.015Z,19.13
2019-02-06T12:14:22.008Z,18.97
2019-02-06T12:16:53.180Z,20.37
2019-02-06T12:19:24.227Z,19.93
2019-02-06T12:21:55.287Z,19.57
2019-02-06T12:24:32.002Z,18.83
2019-02-06T12:27:03.057Z,19.83
2019-02-06T12:29:34.016Z,20.20
2019-02-06T12:32:05.560Z,19.70
2019-02-06T12:34:36.518Z,19.80
2019-02-06T12:37:07.414Z,19.17
2019-02-06T12:39:38.848Z,19.43
2019-02-06T12:42:10.386Z,19.73
2019-02-06T12:44:42.798Z,19.07
2019-02-06T12:47:14.380Z,19.87
2019-02-06T12:49:45.552Z,18.50
2019-02-06T12:52:16.635Z,19.53
2019-02-06T12:54:48.248Z,20.80
2019-02-06T12:57:19.285Z,19.03
2019-02-06T12:59:50.243Z,18.63
2019-02-06T13:02:21.431Z,19.33
2019-02-06T13:04:54.070Z,18.87
2019-02-06T13:07:25.120Z,19.10
2019-02-06T13:09:56.165Z,18.73
2019-02-06T13:12:27.432Z,19.73
2019-02-06T13:14:58.854Z,19.67
2019-02-06T13:17:29.868Z,20.37
2019-02-06T13:20:00.974Z,19.30
2019-02-06T13:22:34.052Z,21.30
2019-02-06T13:25:07.856Z,20.07
2019-02-06T13:27:38.800Z,19.73
2019-02-06T13:30:21.469Z,19.13
2019-02-06T13:32:52.842Z,19.47
2019-02-06T13:35:23.897Z,20.57
2019-02-06T13:37:54.993Z,22.03
2019-02-06T13:40:29.901Z,20.70
2019-02-06T13:43:01.041Z,19.93
2019-02-06T13:45:43.581Z,19.90
2019-02-06T13:48:14.622Z,20.37
2019-02-06T13:50:47.413Z,22.37
2019-02-06T13:53:18.441Z,19.70
2019-02-06T13:55:49.855Z,19.73
2019-02-06T13:58:21.001Z,21.03
2019-02-06T14:00:52.641Z,19.97
2019-02-06T14:03:23.756Z,21.00
2019-02-06T14:05:54.912Z,21.17
2019-02-06T14:08:28.611Z,20.63
2019-02-06T14:11:00.841Z,20.27
2019-02-06T14:13:32.172Z,18.63
2019-02-06T14:16:03.623Z,20.67
2019-02-06T14:18:34.684Z,19.13
2019-02-06T14:21:05.861Z,19.43
2019-02-06T14:23:39.817Z,19.17
2019-02-06T14:26:16.338Z,20.53
2019-02-06T14:29:11.007Z,19.13
2019-02-06T14:31:56.221Z,18.47
2019-02-06T14:34:41.993Z,19.47
2019-02-06T14:37:27.674Z,18.77
2019-02-06T14:40:01.451Z,20.10
2019-02-06T14:42:41.022Z,19.80
2019-02-06T14:45:27.345Z,18.20
2019-02-06T14:48:07.103Z,17.83
2019-02-06T14:51:00.383Z,19.73
2019-02-06T14:53:49.397Z,18.70
2019-02-06T14:56:26.367Z,18.73
2019-02-06T14:59:20.518Z,18.93
2019-02-06T15:02:12.651Z,18.67
2019-02-06T15:04:55.367Z,18.87
2019-02-06T15:07:35.189Z,18.20
2019-02-06T15:10:29.054Z,18.87
2019-02-06T15:13:21.215Z,18.40
2019-02-06T15:16:04.082Z,17.67
2019-02-06T15:18:38.093Z,18.37
2019-02-06T15:21:39.522Z,19.13
2019-02-06T15:24:38.071Z,19.67
2019-02-06T15:27:33.026Z,20.67
2019-02-06T15:30:20.033Z,19.67
2019-02-06T15:33:08.545Z,20.87
2019-02-06T15:35:45.663Z,20.03
2019-02-06T15:38:46.669Z,18.90
2019-02-06T15:41:31.311Z,21.23
2019-02-06T15:44:05.431Z,20.73
2019-02-06T15:46:42.430Z,19.33
2019-02-06T15:49:33.221Z,20.40
2019-02-06T15:52:18.987Z,19.20
2019-02-06T15:54:58.769Z,18.97
2019-02-06T15:57:41.504Z,18.70
2019-02-06T16:00:27.572Z,18.70
2019-02-06T16:03:07.618Z,18.43
2019-02-06T16:05:59.424Z,18.43
2019-02-06T16:08:42.321Z,19.37
2019-02-06T16:11:27.864Z,18.93
2019-02-06T16:14:07.339Z,19.93
2019-02-06T16:16:44.271Z,17.53
2019-02-06T16:19:47.670Z,20.70
2019-02-06T16:22:33.743Z,22.53
2019-02-06T16:25:07.714Z,19.90
2019-02-06T16:27:44.245Z,19.70
2019-02-06T16:30:24.152Z,20.23
2019-02-06T16:33:19.550Z,19.80
2019-02-06T16:35:56.323Z,20.10
2019-02-06T16:38:33.157Z,20.20
2019-02-06T16:41:25.190Z,20.00
2019-02-06T16:44:02.148Z,20.77
2019-02-06T16:46:36.114Z,21.43
2019-02-06T16:49:16.370Z,20.37
2019-02-06T16:51:59.373Z,20.47
2019-02-06T16:54:45.159Z,19.67
2019-02-06T16:57:33.526Z,20.97
2019-02-06T17:00:19.080Z,20.23
2019-02-06T17:02:53.432Z,20.97
2019-02-06T17:05:36.765Z,20.93
2019-02-06T17:08:10.747Z,21.53
2019-02-06T17:11:06.750Z,22.13
2019-02-06T17:13:57.040Z,22.43
2019-02-06T17:16:49.484Z,22.07
2019-02-06T17:19:29.226Z,22.33
2019-02-06T17:22:18.410Z,22.33
2019-02-06T17:25:06.061Z,24.63
2019-02-06T17:27:49.208Z,23.53
2019-02-06T17:30:42.852Z,22.43
2019-02-06T17:33:16.876Z,23.77
2019-02-06T17:35:56.980Z,24.57
2019-02-06T17:38:56.588Z,24.03
2019-02-06T17:41:36.173Z,23.93
2019-02-06T17:44:17.404Z,24.23
2019-02-06T17:46:57.371Z,24.37
2019-02-06T17:49:40.395Z,24.40
2019-02-06T17:52:14.395Z,24.83
2019-02-06T17:55:20.120Z,23.13
2019-02-06T17:57:52.590Z,21.00
2019-02-06T18:00:48.058Z,22.83
2019-02-06T18:03:20.164Z,23.23
2019-02-06T18:05:53.527Z,24.50
2019-02-06T18:08:24.562Z,23.53
2019-02-06T18:10:58.680Z,23.13
2019-02-06T18:13:33.076Z,25.03
2019-02-06T18:16:04.305Z,23.60
2019-02-06T18:18:35.423Z,22.77
2019-02-06T18:21:06.626Z,22.10
2019-02-06T18:23:37.815Z,24.37
2019-02-06T18:26:09.215Z,23.63
2019-02-06T18:28:40.485Z,24.37
2019-02-06T18:31:11.862Z,24.40
2019-02-06T18:33:43.067Z,24.77
2019-02-06T18:36:14.116Z,24.50
2019-02-06T18:38:47.091Z,25.23
2019-02-06T18:41:20.997Z,23.17
2019-02-06T18:44:04.544Z,24.40
2019-02-06T18:46:35.795Z,22.97
2019-02-06T18:49:07.230Z,23.93
2019-02-06T18:51:38.767Z,23.27
2019-02-06T18:54:10.302Z,24.33
2019-02-06T18:56:41.447Z,22.47
2019-02-06T18:59:12.738Z,22.83
2019-02-06T19:01:45.471Z,23.47
2019-02-06T19:04:16.491Z,22.87
2019-02-06T19:06:47.524Z,23.30
2019-02-06T19:09:18.751Z,24.03
2019-02-06T19:11:49.991Z,23.17
2019-02-06T19:14:23.061Z,23.97
2019-02-06T19:16:54.179Z,23.87
2019-02-06T19:19:25.834Z,24.60
2019-02-06T19:21:56.790Z,25.83
2019-02-06T19:24:30.420Z,24.33
2019-02-06T19:27:02.796Z,24.67
2019-02-06T19:29:34.020Z,23.93
2019-02-06T19:32:05.383Z,26.17
2019-02-06T19:34:36.436Z,25.20
2019-02-06T19:37:07.546Z,24.60
2019-02-06T19:39:38.771Z,23.87
2019-02-06T19:42:10.379Z,23.73
2019-02-06T19:44:59.302Z,24.07
2019-02-06T19:47:32.143Z,23.13
2019-02-06T19:50:04.323Z,24.73
2019-02-06T19:52:40.260Z,24.17
2019-02-06T19:55:14.019Z,23.20
2019-02-06T19:57:45.200Z,23.73
2019-02-06T20:00:22.140Z,23.27
2019-02-06T20:02:53.214Z,22.93
2019-02-06T20:05:24.624Z,21.23
2019-02-06T20:07:55.788Z,23.87
2019-02-06T20:10:35.445Z,23.53
2019-02-06T20:13:12.335Z,24.83
2019-02-06T20:15:39.877Z,22.80
2019-02-06T20:18:11.163Z,23.97
2019-02-06T20:20:42.112Z,23.53
2019-02-06T20:23:13.253Z,23.00
2019-02-06T20:25:45.471Z,24.43
2019-02-06T20:28:16.569Z,22.77
2019-02-06T20:30:47.726Z,21.77
2019-02-06T20:33:19.394Z,20.27
2019-02-06T20:35:50.558Z,23.13
2019-02-06T20:38:21.702Z,22.17
2019-02-06T20:40:52.931Z,23.47
2019-02-06T20:43:23.951Z,23.50
2019-02-06T20:45:54.939Z,22.93
2019-02-06T20:48:26.162Z,21.93
2019-02-06T20:50:57.304Z,20.47
2019-02-06T20:53:28.393Z,21.33
2019-02-06T20:55:59.506Z,21.13
2019-02-06T20:58:30.624Z,21.10
2019-02-06T21:01:01.779Z,22.47
2019-02-06T21:03:32.808Z,21.87
2019-02-06T21:06:03.990Z,20.43
2019-02-06T21:08:35.244Z,19.70
2019-02-06T21:11:06.472Z,20.87
2019-02-06T21:13:37.526Z,20.20
2019-02-06T21:16:09.223Z,20.57
2019-02-06T21:18:40.149Z,19.17
2019-02-06T21:21:11.206Z,20.33
2019-02-06T21:23:42.262Z,21.23
2019-02-06T21:26:13.531Z,20.87
2019-02-06T21:28:44.564Z,21.87
2019-02-06T21:31:15.734Z,20.57
2019-02-06T21:33:46.788Z,20.27
2019-02-06T21:36:17.894Z,20.80
2019-02-06T21:38:49.031Z,22.57
2019-02-06T21:41:20.097Z,21.70
2019-02-06T21:43:51.131Z,20.60
2019-02-06T21:46:22.247Z,23.53
2019-02-06T21:48:53.366Z,20.97
2019-02-06T21:51:24.402Z,21.93
2019-02-06T21:53:55.841Z,22.43
2019-02-06T21:56:27.189Z,19.73
2019-02-06T21:58:58.452Z,20.67
2019-02-06T22:01:30.279Z,20.73
2019-02-06T22:04:01.541Z,20.10
2019-02-06T22:06:32.527Z,20.60
2019-02-06T22:09:04.598Z,20.03
2019-02-06T22:11:35.751Z,20.73
2019-02-06T22:14:06.952Z,18.63
2019-02-06T22:16:38.086Z,19.90
2019-02-06T22:19:09.560Z,19.93
2019-02-06T22:21:40.849Z,19.80
2019-02-06T22:24:11.887Z,20.10
2019-02-06T22:26:42.943Z,21.83
2019-02-06T22:29:14.014Z,20.00
2019-02-06T22:31:45.177Z,20.60
2019-02-06T22:34:16.440Z,20.07
2019-02-06T22:36:47.540Z,20.63
2019-02-06T22:39:18.621Z,19.40
2019-02-06T22:41:49.764Z,20.03
2019-02-06T22:44:20.838Z,20.63
2019-02-06T22:46:51.847Z,19.37
2019-02-06T22:49:22.811Z,19.63
2019-02-06T22:51:53.882Z,19.97
2019-02-06T22:54:25.026Z,19.37
2019-02-06T22:56:56.689Z,18.73
2019-02-06T22:59:27.670Z,21.17
2019-02-06T23:01:58.767Z,19.10
2019-02-06T23:04:30.167Z,18.67
2019-02-06T23:07:01.283Z,21.47
2019-02-06T23:09:32.714Z,21.13
2019-02-06T23:12:04.097Z,19.13
2019-02-06T23:14:35.165Z,19.63
2019-02-06T23:17:06.322Z,20.37
2019-02-06T23:19:37.410Z,20.20
2019-02-06T23:22:08.512Z,19.63
2019-02-06T23:24:39.651Z,19.50
2019-02-06T23:27:10.719Z,22.47
2019-02-06T23:29:41.769Z,18.53
2019-02-06T23:32:12.949Z,19.83
2019-02-06T23:34:43.903Z,19.40
2019-02-06T23:37:14.949Z,18.93
2019-02-06T23:39:45.889Z,20.17
2019-02-06T23:42:16.975Z,20.27
2019-02-06T23:44:48.040Z,21.90
2019-02-06T23:47:19.109Z,20.93
2019-02-06T23:49:50.232Z,20.73
2019-02-06T23:52:21.491Z,19.90
2019-02-06T23:54:52.480Z,20.17
2019-02-06T23:57:23.618Z,21.43
2019-02-06T23:59:54.657Z,19.93
